createdAt,value
2017-11-28T00:01:11.492Z,83.10
2017-11-28T00:03:38.444Z,83.20
2017-11-28T00:06:04.884Z,82.70
2017-11-28T00:08:31.270Z,82.90
2017-11-28T00:10:58.525Z,82.90
2017-11-28T00:13:24.946Z,82.70
2017-11-28T00:15:51.388Z,82.30
2017-11-28T00:18:17.861Z,82.60
2017-11-28T00:20:44.288Z,82.40
2017-11-28T00:23:10.720Z,81.90
2017-11-28T00:25:37.172Z,82.20
2017-11-28T00:28:03.621Z,81.50
2017-11-28T00:30:30.044Z,79.20
2017-11-28T00:32:56.485Z,77.90
2017-11-28T00:35:22.902Z,78.20
2017-11-28T00:37:49.344Z,78.90
2017-11-28T00:40:16.525Z,77.70
2017-11-28T00:42:42.974Z,77.60
2017-11-28T00:45:10.125Z,77.10
2017-11-28T00:47:36.587Z,77.10
2017-11-28T00:50:03.045Z,77.60
2017-11-28T00:52:29.516Z,77.50
2017-11-28T00:54:55.985Z,77.80
2017-11-28T00:57:22.773Z,77.80
2017-11-28T00:59:49.210Z,77.90
2017-11-28T01:02:15.613Z,78.00
2017-11-28T01:04:42.022Z,78.20
2017-11-28T01:07:08.621Z,78.20
2017-11-28T01:09:35.793Z,79.00
2017-11-28T01:12:02.958Z,79.30
2017-11-28T01:14:29.424Z,79.30
2017-11-28T01:16:55.870Z,79.80
2017-11-28T01:19:22.341Z,79.80
2017-11-28T01:21:49.561Z,79.20
2017-11-28T01:24:16.048Z,79.20
2017-11-28T01:26:42.503Z,78.80
2017-11-28T01:29:08.940Z,79.10
2017-11-28T01:31:35.389Z,79.10
2017-11-28T01:34:01.860Z,80.40
2017-11-28T01:36:29.026Z,78.70
2017-11-28T01:38:55.468Z,78.70
2017-11-28T01:41:22.052Z,78.30
2017-11-28T01:43:48.489Z,78.00
2017-11-28T01:46:14.945Z,77.40
2017-11-28T01:48:42.181Z,77.70
2017-11-28T01:51:08.636Z,77.70
2017-11-28T01:53:35.822Z,77.70
2017-11-28T01:56:02.269Z,77.60
2017-11-28T01:58:28.725Z,76.90
2017-11-28T02:00:55.940Z,76.90
2017-11-28T02:03:22.388Z,76.90
2017-11-28T02:05:48.812Z,76.50
2017-11-28T02:08:15.354Z,76.30
2017-11-28T02:10:41.812Z,76.30
2017-11-28T02:13:09.040Z,77.80
2017-11-28T02:15:35.477Z,77.90
2017-11-28T02:18:01.974Z,78.30
2017-11-28T02:20:28.466Z,78.20
2017-11-28T02:22:56.372Z,77.30
2017-11-28T02:25:22.812Z,77.20
2017-11-28T02:27:49.290Z,77.20
2017-11-28T02:30:15.709Z,77.20
2017-11-28T02:32:42.168Z,78.00
2017-11-28T02:35:08.588Z,78.60
2017-11-28T02:37:35.093Z,78.90
2017-11-28T02:40:01.584Z,79.30
2017-11-28T02:42:28.757Z,80.20
2017-11-28T02:44:55.219Z,80.10
2017-11-28T02:47:21.660Z,79.80
2017-11-28T02:49:48.876Z,80.00
2017-11-28T02:52:15.304Z,79.70
2017-11-28T02:55:06.585Z,80.10
2017-11-28T02:57:34.901Z,80.20
2017-11-28T03:00:03.357Z,81.30
2017-11-28T03:02:29.842Z,82.10
2017-11-28T03:04:56.453Z,82.70
2017-11-28T03:07:25.581Z,82.60
2017-11-28T03:09:53.826Z,81.40
2017-11-28T03:12:23.255Z,81.50
2017-11-28T03:15:00.575Z,81.60
2017-11-28T03:17:26.999Z,81.40
2017-11-28T03:19:59.551Z,81.30
2017-11-28T03:22:38.065Z,80.60
2017-11-28T03:25:20.177Z,81.30
2017-11-28T03:28:06.368Z,81.80
2017-11-28T03:30:33.785Z,82.30
2017-11-28T03:33:00.973Z,83.80
2017-11-28T03:35:27.419Z,83.80
2017-11-28T03:37:53.866Z,84.00
2017-11-28T03:40:20.305Z,83.90
2017-11-28T03:42:47.462Z,83.70
2017-11-28T03:48:13.505Z,83.30
2017-11-28T03:50:39.965Z,83.20
2017-11-28T03:53:06.398Z,83.10
2017-11-28T03:55:32.836Z,83.10
2017-11-28T03:57:59.282Z,83.10
2017-11-28T04:00:25.716Z,82.90
2017-11-28T04:02:52.256Z,83.20
2017-11-28T04:05:18.691Z,83.60
2017-11-28T04:07:45.189Z,83.50
2017-11-28T04:10:11.629Z,82.80
2017-11-28T04:12:38.090Z,82.30
2017-11-28T04:15:04.542Z,81.90
2017-11-28T04:17:30.977Z,81.50
2017-11-28T04:19:57.521Z,81.00
2017-11-28T04:22:23.968Z,81.10
2017-11-28T04:24:50.400Z,81.70
2017-11-28T04:27:16.829Z,81.80
2017-11-28T04:29:43.266Z,82.00
2017-11-28T04:32:09.763Z,81.90
2017-11-28T04:34:36.198Z,83.10
2017-11-28T04:37:02.667Z,84.10
2017-11-28T04:39:29.132Z,84.90
2017-11-28T04:41:55.568Z,85.20
2017-11-28T04:44:22.001Z,84.50
2017-11-28T04:46:48.431Z,83.80
2017-11-28T04:49:14.870Z,83.30
2017-11-28T04:51:41.334Z,82.70
2017-11-28T04:54:07.767Z,81.80
2017-11-28T04:56:39.094Z,81.20
2017-11-28T04:59:05.569Z,81.00
2017-11-28T05:01:32.005Z,81.40
2017-11-28T05:03:59.945Z,81.80
2017-11-28T05:06:26.375Z,81.70
2017-11-28T05:11:16.959Z,82.90
2017-11-28T05:13:43.400Z,82.10
2017-11-28T05:16:09.923Z,81.80
2017-11-28T05:18:36.362Z,82.70
2017-11-28T05:21:02.796Z,82.60
2017-11-28T05:23:29.252Z,83.20
2017-11-28T05:25:55.682Z,82.40
2017-11-28T05:28:22.158Z,82.70
2017-11-28T05:30:48.616Z,85.10
2017-11-28T05:33:15.841Z,86.00
2017-11-28T05:35:42.322Z,85.90
2017-11-28T05:38:08.777Z,85.60
2017-11-28T05:40:35.233Z,85.50
2017-11-28T05:43:01.676Z,85.20
2017-11-28T05:45:28.088Z,85.20
2017-11-28T05:47:54.507Z,85.30
2017-11-28T05:50:20.946Z,85.50
2017-11-28T05:52:47.395Z,84.60
2017-11-28T05:55:13.850Z,84.10
2017-11-28T05:57:41.051Z,83.00
2017-11-28T06:00:07.526Z,83.00
2017-11-28T06:02:33.965Z,82.50
2017-11-28T06:05:00.404Z,82.00
2017-11-28T06:07:27.579Z,83.30
2017-11-28T06:09:54.028Z,83.30
2017-11-28T06:12:21.204Z,83.30
2017-11-28T06:14:47.646Z,83.20
2017-11-28T06:17:14.107Z,83.50
2017-11-28T06:19:41.294Z,83.60
2017-11-28T06:22:07.764Z,83.60
2017-11-28T06:24:34.171Z,83.90
2017-11-28T06:27:00.725Z,82.80
2017-11-28T06:29:28.688Z,82.60
2017-11-28T06:31:55.111Z,82.50
2017-11-28T06:34:21.537Z,83.00
2017-11-28T06:36:48.009Z,83.10
2017-11-28T06:39:14.453Z,83.30
2017-11-28T06:41:41.729Z,83.90
2017-11-28T06:44:08.176Z,83.90
2017-11-28T06:46:34.653Z,84.30
2017-11-28T06:49:01.081Z,85.00
2017-11-28T06:51:27.495Z,84.70
2017-11-28T06:53:53.952Z,85.20
2017-11-28T06:56:20.381Z,85.60
2017-11-28T06:58:46.842Z,85.10
2017-11-28T07:01:14.039Z,84.20
2017-11-28T07:03:40.496Z,84.20
2017-11-28T07:06:06.928Z,84.60
2017-11-28T07:08:33.363Z,84.10
2017-11-28T07:10:59.806Z,84.60
2017-11-28T07:13:26.246Z,84.70
2017-11-28T07:15:53.429Z,84.60
2017-11-28T07:18:19.867Z,84.60
2017-11-28T07:20:46.380Z,84.90
2017-11-28T07:23:13.583Z,85.20
2017-11-28T07:25:40.128Z,85.20
2017-11-28T07:28:07.494Z,85.80
2017-11-28T07:30:35.423Z,85.90
2017-11-28T07:33:01.902Z,85.90
2017-11-28T07:35:28.359Z,86.20
2017-11-28T07:37:54.833Z,86.90
2017-11-28T07:40:21.280Z,85.70
2017-11-28T07:42:47.950Z,86.00
2017-11-28T07:45:15.137Z,87.80
2017-11-28T07:47:41.592Z,87.80
2017-11-28T07:50:08.023Z,87.80
2017-11-28T07:52:34.439Z,87.60
2017-11-28T07:55:00.885Z,87.30
2017-11-28T07:57:27.668Z,86.30
2017-11-28T07:59:54.894Z,85.50
2017-11-28T08:02:21.328Z,85.50
2017-11-28T08:04:47.770Z,85.00
2017-11-28T08:07:14.213Z,84.70
2017-11-28T08:09:40.712Z,84.60
2017-11-28T08:12:07.165Z,84.60
2017-11-28T08:14:33.602Z,84.90
2017-11-28T08:17:00.061Z,84.90
2017-11-28T08:19:27.266Z,84.80
2017-11-28T08:21:53.790Z,84.90
2017-11-28T08:24:20.266Z,84.40
2017-11-28T08:26:46.755Z,84.40
2017-11-28T08:29:13.333Z,84.30
2017-11-28T08:31:41.312Z,84.60
2017-11-28T08:34:07.795Z,84.50
2017-11-28T08:36:34.330Z,84.70
2017-11-28T08:39:00.818Z,85.00
2017-11-28T08:41:27.305Z,85.20
2017-11-28T08:43:53.881Z,85.80
2017-11-28T08:46:21.097Z,85.10
2017-11-28T08:48:47.599Z,85.10
2017-11-28T08:51:14.791Z,85.10
2017-11-28T08:53:41.237Z,85.10
2017-11-28T08:56:08.221Z,84.70
2017-11-28T08:58:34.661Z,84.00
2017-11-28T09:01:01.157Z,84.40
2017-11-28T09:03:29.121Z,84.00
2017-11-28T09:05:55.555Z,84.00
2017-11-28T09:08:22.002Z,84.60
2017-11-28T09:10:49.253Z,84.60
2017-11-28T09:13:16.443Z,84.90
2017-11-28T09:15:42.893Z,84.90
2017-11-28T09:18:09.332Z,84.30
2017-11-28T09:20:35.790Z,84.10
2017-11-28T09:23:02.220Z,83.80
2017-11-28T09:25:28.632Z,83.50
2017-11-28T09:27:55.099Z,83.40
2017-11-28T09:30:22.281Z,82.80
2017-11-28T09:32:49.464Z,83.20
2017-11-28T09:35:15.920Z,83.20
2017-11-28T09:37:42.360Z,83.40
2017-11-28T09:40:08.837Z,83.60
2017-11-28T09:42:35.321Z,83.30
2017-11-28T09:45:01.773Z,82.50
2017-11-28T09:47:28.222Z,82.80
2017-11-28T09:49:55.391Z,84.90
2017-11-28T09:52:21.832Z,84.90
2017-11-28T09:54:49.086Z,86.20
2017-11-28T09:57:15.532Z,86.20
2017-11-28T09:59:41.987Z,86.50
2017-11-28T10:02:08.449Z,86.40
2017-11-28T10:04:35.630Z,86.20
2017-11-28T10:07:02.097Z,86.20
2017-11-28T10:09:28.585Z,85.80
2017-11-28T10:11:55.751Z,84.70
2017-11-28T10:14:22.201Z,84.70
2017-11-28T10:16:48.649Z,84.10
2017-11-28T10:19:15.105Z,84.10
2017-11-28T10:21:43.025Z,82.00
2017-11-28T10:24:09.497Z,81.90
2017-11-28T10:26:35.931Z,81.80
2017-11-28T10:29:02.385Z,81.40
2017-11-28T10:31:29.589Z,79.90
2017-11-28T10:33:56.070Z,79.90
2017-11-28T10:36:23.417Z,78.90
2017-11-28T10:38:50.609Z,78.80
2017-11-28T10:41:17.061Z,78.70
2017-11-28T10:43:43.505Z,78.40
2017-11-28T10:46:09.982Z,78.20
2017-11-28T10:48:37.160Z,77.30
2017-11-28T10:51:03.589Z,77.20
2017-11-28T10:53:30.029Z,77.00
2017-11-28T10:55:56.468Z,76.70
2017-11-28T10:58:22.952Z,77.00
2017-11-28T11:00:49.398Z,76.60
2017-11-28T11:03:15.821Z,76.70
2017-11-28T11:05:42.260Z,76.50
2017-11-28T11:08:09.433Z,76.30
2017-11-28T11:10:35.873Z,76.40
2017-11-28T11:13:02.304Z,75.60
2017-11-28T11:15:28.753Z,74.60
2017-11-28T11:17:55.200Z,74.40
2017-11-28T11:20:21.679Z,75.20
2017-11-28T11:22:48.857Z,75.40
2017-11-28T11:25:16.044Z,75.90
2017-11-28T11:27:42.471Z,75.90
2017-11-28T11:30:08.937Z,76.00
2017-11-28T11:32:35.371Z,76.80
2017-11-28T11:35:02.524Z,76.40
2017-11-28T11:37:28.983Z,76.40
2017-11-28T11:39:55.435Z,76.60
2017-11-28T11:42:21.883Z,76.10
2017-11-28T11:44:48.307Z,76.30
2017-11-28T11:47:14.856Z,76.00
2017-11-28T11:49:41.311Z,75.90
2017-11-28T11:52:07.732Z,75.80
2017-11-28T11:54:34.964Z,75.10
2017-11-28T11:57:01.416Z,75.10
2017-11-28T11:59:27.860Z,73.60
2017-11-28T12:01:55.802Z,74.00
2017-11-28T12:04:22.248Z,73.90
2017-11-28T12:06:48.673Z,73.80
2017-11-28T12:09:15.166Z,73.30
2017-11-28T12:11:42.410Z,72.10
2017-11-28T12:14:08.901Z,72.10
2017-11-28T12:16:35.391Z,72.10
2017-11-28T12:19:01.921Z,71.50
2017-11-28T12:21:28.360Z,71.60
2017-11-28T12:23:54.796Z,71.60
2017-11-28T12:26:21.273Z,72.30
2017-11-28T12:28:48.336Z,72.70
2017-11-28T12:31:14.845Z,72.50
2017-11-28T12:33:41.307Z,73.80
2017-11-28T12:36:07.745Z,71.90
2017-11-28T12:38:34.181Z,71.30
2017-11-28T12:41:00.648Z,71.00
2017-11-28T12:43:27.105Z,70.60
2017-11-28T12:45:53.537Z,69.50
2017-11-28T12:48:20.316Z,69.70
2017-11-28T12:50:46.773Z,69.60
2017-11-28T12:53:13.957Z,69.40
2017-11-28T12:55:40.436Z,69.30
2017-11-28T12:58:08.365Z,67.30
2017-11-28T13:00:34.768Z,67.30
2017-11-28T13:03:01.215Z,66.70
2017-11-28T13:05:27.672Z,66.90
2017-11-28T13:07:54.119Z,68.20
2017-11-28T13:10:22.064Z,68.20
2017-11-28T13:12:48.543Z,68.10
2017-11-28T13:15:15.759Z,69.10
2017-11-28T13:17:42.269Z,68.50
2017-11-28T13:20:08.700Z,69.10
2017-11-28T13:22:35.165Z,69.00
2017-11-28T13:25:01.645Z,69.10
2017-11-28T13:27:28.832Z,68.10
2017-11-28T13:29:55.282Z,68.10
2017-11-28T13:32:21.735Z,67.80
2017-11-28T13:34:49.678Z,68.80
2017-11-28T13:37:16.158Z,68.80
2017-11-28T13:39:43.378Z,69.00
2017-11-28T13:42:09.862Z,69.00
2017-11-28T13:44:36.324Z,68.40
2017-11-28T13:47:02.776Z,68.50
2017-11-28T13:49:29.209Z,69.20
2017-11-28T13:51:55.676Z,68.30
2017-11-28T13:54:22.848Z,68.60
2017-11-28T13:56:49.282Z,68.40
2017-11-28T13:59:15.795Z,67.80
2017-11-28T14:01:42.252Z,67.70
2017-11-28T14:04:08.749Z,68.70
2017-11-28T14:06:35.914Z,69.80
2017-11-28T14:09:03.141Z,69.30
2017-11-28T14:11:31.069Z,69.40
2017-11-28T14:13:58.235Z,70.00
2017-11-28T14:16:24.687Z,70.00
2017-11-28T14:18:52.658Z,69.80
2017-11-28T14:21:19.191Z,69.80
2017-11-28T14:24:04.457Z,70.30
2017-11-28T14:26:37.110Z,70.20
2017-11-28T14:29:06.549Z,70.60
2017-11-28T14:31:37.962Z,70.60
2017-11-28T14:34:04.417Z,70.60
2017-11-28T14:36:32.858Z,70.70
2017-11-28T14:39:00.202Z,71.60
2017-11-28T14:41:42.283Z,71.80
2017-11-28T14:44:12.703Z,71.70
2017-11-28T14:46:40.710Z,72.70
2017-11-28T14:49:07.248Z,72.70
2017-11-28T14:51:41.595Z,73.20
2017-11-28T14:54:26.863Z,73.40
2017-11-28T14:57:13.271Z,73.20
2017-11-28T14:59:45.921Z,73.60
2017-11-28T15:02:18.462Z,74.00
2017-11-28T15:04:51.754Z,75.80
2017-11-28T15:07:33.102Z,75.60
2017-11-28T15:10:18.244Z,76.40
2017-11-28T15:12:50.589Z,77.50
2017-11-28T15:15:23.168Z,78.00
2017-11-28T15:17:52.428Z,78.10
2017-11-28T15:20:19.960Z,78.10
2017-11-28T15:22:57.239Z,78.20
2017-11-28T15:25:25.601Z,78.20
2017-11-28T15:27:52.142Z,78.40
2017-11-28T15:30:18.689Z,78.00
2017-11-28T15:32:45.212Z,77.80
2017-11-28T15:35:11.699Z,78.20
2017-11-28T15:37:38.183Z,78.50
2017-11-28T15:40:04.735Z,78.40
2017-11-28T15:42:31.191Z,78.30
2017-11-28T15:44:57.662Z,78.40
2017-11-28T15:47:24.909Z,78.90
2017-11-28T15:49:51.379Z,78.20
2017-11-28T15:52:17.863Z,78.90
2017-11-28T15:54:45.821Z,78.70
2017-11-28T15:57:12.335Z,78.70
2017-11-28T15:59:38.824Z,78.40
2017-11-28T16:02:06.053Z,77.80
2017-11-28T16:04:33.310Z,77.70
2017-11-28T16:07:01.273Z,78.30
2017-11-28T16:09:27.753Z,78.30
2017-11-28T16:11:54.279Z,78.00
2017-11-28T16:14:21.418Z,78.50
2017-11-28T16:16:47.889Z,78.40
2017-11-28T16:19:14.340Z,78.70
2017-11-28T16:21:40.794Z,78.70
2017-11-28T16:24:08.763Z,79.10
2017-11-28T16:26:35.256Z,79.10
2017-11-28T16:29:01.716Z,79.70
2017-11-28T16:31:28.235Z,79.80
2017-11-28T16:33:54.731Z,80.00
2017-11-28T16:36:21.191Z,80.00
2017-11-28T16:38:47.666Z,80.00
2017-11-28T16:41:14.144Z,79.90
2017-11-28T16:43:40.626Z,80.30
2017-11-28T16:46:07.062Z,80.00
2017-11-28T16:48:33.534Z,80.00
2017-11-28T16:51:00.739Z,79.90
2017-11-28T16:53:28.726Z,80.20
2017-11-28T16:55:56.683Z,80.20
2017-11-28T16:58:24.658Z,80.60
2017-11-28T17:00:52.601Z,80.50
2017-11-28T17:03:19.095Z,80.50
2017-11-28T17:05:47.164Z,80.40
2017-11-28T17:08:14.361Z,80.40
2017-11-28T17:10:40.821Z,80.40
2017-11-28T17:13:08.790Z,80.50
2017-11-28T17:15:36.822Z,80.40
2017-11-28T17:18:03.302Z,80.40
2017-11-28T17:20:30.538Z,80.00
2017-11-28T17:22:57.776Z,79.60
2017-11-28T17:25:24.273Z,79.60
2017-11-28T17:27:50.753Z,80.00
2017-11-28T17:30:17.218Z,80.10
2017-11-28T17:32:44.496Z,79.80
2017-11-28T17:35:11.047Z,79.60
2017-11-28T17:37:37.560Z,79.40
2017-11-28T17:40:04.034Z,79.40
2017-11-28T17:42:30.508Z,79.60
2017-11-28T17:44:57.750Z,79.70
2017-11-28T17:47:24.956Z,79.80
2017-11-28T17:49:51.471Z,79.70
2017-11-28T17:52:17.937Z,79.40
2017-11-28T17:54:44.401Z,79.60
2017-11-28T17:57:11.633Z,79.30
2017-11-28T17:59:38.967Z,80.00
2017-11-28T18:02:05.406Z,79.50
2017-11-28T18:04:31.831Z,80.20
2017-11-28T18:06:58.287Z,80.90
2017-11-28T18:09:24.732Z,81.50
2017-11-28T18:11:52.678Z,78.20
2017-11-28T18:14:19.175Z,78.30
2017-11-28T18:16:45.636Z,77.80
2017-11-28T18:19:12.131Z,77.10
2017-11-28T18:21:39.304Z,77.30
2017-11-28T18:24:05.753Z,77.30
2017-11-28T18:26:32.190Z,78.70
2017-11-28T18:28:58.609Z,79.50
2017-11-28T18:31:25.085Z,79.40
2017-11-28T18:33:53.025Z,79.30
2017-11-28T18:36:19.474Z,79.30
2017-11-28T18:38:45.977Z,79.60
2017-11-28T18:41:12.394Z,79.90
2017-11-28T18:43:39.574Z,80.40
2017-11-28T18:46:06.008Z,80.40
2017-11-28T18:48:32.419Z,80.40
2017-11-28T18:50:58.852Z,80.70
2017-11-28T18:53:25.286Z,81.00
2017-11-28T18:55:51.740Z,80.90
2017-11-28T18:58:18.220Z,81.00
2017-11-28T19:00:44.664Z,81.10
2017-11-28T19:03:11.921Z,82.00
2017-11-28T19:05:39.090Z,81.10
2017-11-28T19:08:05.542Z,81.10
2017-11-28T19:10:32.024Z,80.90
2017-11-28T19:12:58.472Z,80.30
2017-11-28T19:15:24.933Z,80.20
2017-11-28T19:17:51.496Z,81.50
2017-11-28T19:20:17.960Z,81.60
2017-11-28T19:22:44.408Z,82.20
2017-11-28T19:25:11.604Z,82.70
2017-11-28T19:27:38.084Z,82.70
2017-11-28T19:30:04.566Z,83.30
2017-11-28T19:32:31.074Z,83.60
2017-11-28T19:34:57.546Z,83.80
2017-11-28T19:37:23.993Z,84.20
2017-11-28T19:39:51.193Z,85.20
2017-11-28T19:42:17.635Z,85.20
2017-11-28T19:44:44.093Z,85.00
2017-11-28T19:47:10.541Z,85.20
2017-11-28T19:49:36.998Z,85.10
2017-11-28T19:52:04.201Z,85.00
2017-11-28T19:54:32.153Z,84.50
2017-11-28T19:56:58.565Z,84.50
2017-11-28T19:59:25.007Z,85.50
2017-11-28T20:01:51.449Z,85.10
2017-11-28T20:04:17.880Z,85.20
2017-11-28T20:06:44.315Z,84.90
2017-11-28T20:09:10.741Z,84.90
2017-11-28T20:11:37.194Z,84.90
2017-11-28T20:14:03.621Z,85.40
2017-11-28T20:16:30.107Z,85.20
2017-11-28T20:18:56.615Z,85.60
2017-11-28T20:21:24.646Z,85.40
2017-11-28T20:23:51.225Z,86.00
2017-11-28T20:26:17.750Z,85.10
2017-11-28T20:28:44.287Z,85.00
2017-11-28T20:31:10.811Z,84.90
2017-11-28T20:33:37.318Z,85.20
2017-11-28T20:36:03.828Z,85.00
2017-11-28T20:38:31.067Z,85.50
2017-11-28T20:40:57.546Z,85.50
2017-11-28T20:43:24.035Z,85.20
2017-11-28T20:45:52.006Z,84.70
2017-11-28T20:48:18.476Z,84.70
2017-11-28T20:50:44.962Z,84.40
2017-11-28T20:53:11.522Z,84.50
2017-11-28T20:55:38.773Z,84.90
2017-11-28T20:58:05.991Z,84.90
2017-11-28T21:00:32.444Z,84.90
2017-11-28T21:03:00.377Z,84.70
2017-11-28T21:05:26.811Z,84.60
2017-11-28T21:07:53.250Z,84.80
2017-11-28T21:10:19.799Z,84.90
2017-11-28T21:12:46.487Z,84.50
2017-11-28T21:15:12.927Z,84.70
2017-11-28T21:17:39.340Z,84.50
2017-11-28T21:20:06.502Z,84.80
2017-11-28T21:22:33.699Z,84.70
2017-11-28T21:25:00.155Z,84.70
2017-11-28T21:27:27.338Z,85.00
2017-11-28T21:29:53.781Z,84.90
2017-11-28T21:32:20.277Z,85.30
2017-11-28T21:34:47.461Z,84.20
2017-11-28T21:37:13.913Z,84.60
2017-11-28T21:39:40.336Z,84.50
2017-11-28T21:42:06.861Z,84.50
2017-11-28T21:44:33.305Z,84.10
2017-11-28T21:46:59.714Z,84.40
2017-11-28T21:49:26.904Z,84.20
2017-11-28T21:51:53.374Z,84.20
2017-11-28T21:54:20.569Z,84.60
2017-11-28T21:56:46.997Z,83.90
2017-11-28T21:59:13.447Z,83.90
2017-11-28T22:01:39.874Z,84.30
2017-11-28T22:04:06.318Z,84.40
2017-11-28T22:06:32.738Z,84.60
2017-11-28T22:08:59.206Z,84.60
2017-11-28T22:11:25.667Z,84.70
2017-11-28T22:13:52.849Z,84.20
2017-11-28T22:16:19.256Z,84.20
2017-11-28T22:18:46.420Z,84.00
2017-11-28T22:21:12.875Z,84.00
2017-11-28T22:23:39.360Z,84.10
2017-11-28T22:26:06.566Z,85.90
2017-11-28T22:28:33.004Z,85.90
2017-11-28T22:30:59.433Z,86.60
2017-11-28T22:33:25.874Z,87.50
2017-11-28T22:35:52.328Z,87.70
2017-11-28T22:38:18.779Z,87.30
2017-11-28T22:40:45.207Z,87.60
2017-11-28T22:43:11.712Z,87.70
2017-11-28T22:45:38.193Z,87.90
2017-11-28T22:48:05.396Z,88.70
2017-11-28T22:50:31.833Z,88.60
2017-11-28T22:52:58.264Z,88.60
2017-11-28T22:55:24.703Z,87.80
2017-11-28T22:57:51.212Z,87.80
2017-11-28T23:00:17.693Z,88.10
2017-11-28T23:02:44.156Z,88.80
2017-11-28T23:05:10.600Z,89.00
2017-11-28T23:07:37.003Z,89.00
2017-11-28T23:10:04.206Z,89.20
2017-11-28T23:12:30.658Z,89.20
2017-11-28T23:14:57.093Z,89.30
2017-11-28T23:17:23.560Z,89.80
2017-11-28T23:19:50.869Z,89.30
2017-11-28T23:22:17.367Z,89.30
2017-11-28T23:24:43.828Z,89.40
2017-11-28T23:27:10.266Z,90.00
2017-11-28T23:29:37.580Z,90.00
2017-11-28T23:32:03.999Z,90.00
2017-11-28T23:34:31.173Z,90.00
2017-11-28T23:36:57.800Z,90.20
2017-11-28T23:39:24.239Z,89.50
2017-11-28T23:41:50.677Z,89.60
2017-11-28T23:44:17.214Z,89.30
2017-11-28T23:46:43.635Z,89.40
2017-11-28T23:49:10.081Z,89.10
2017-11-28T23:51:36.588Z,89.70
2017-11-28T23:54:03.757Z,88.60
2017-11-28T23:56:30.220Z,88.60
2017-11-28T23:58:56.728Z,88.70
